createdAt,value
2016-05-24T00:00:48.013Z,1002.87
2016-05-24T00:01:48.015Z,1002.83
2016-05-24T00:02:48.019Z,1002.86
2016-05-24T00:03:48.021Z,1002.83
2016-05-24T00:04:48.009Z,1002.83
2016-05-24T00:05:48.011Z,1002.8
2016-05-24T00:06:48.014Z,1002.78
2016-05-24T00:07:48.000Z,1002.77
2016-05-24T00:08:48.003Z,1002.81
2016-05-24T00:09:48.006Z,1002.81
2016-05-24T00:10:47.993Z,1002.77
2016-05-24T00:11:47.995Z,1002.78
2016-05-24T00:12:47.998Z,1002.76
2016-05-24T00:13:48.001Z,1002.74
2016-05-24T00:14:47.988Z,1002.73
2016-05-24T00:15:48.006Z,1002.74
2016-05-24T00:16:47.994Z,1002.73
2016-05-24T00:17:48.137Z,1002.76
2016-05-24T00:18:47.983Z,1002.75
2016-05-24T00:19:47.986Z,1002.81
2016-05-24T00:20:47.989Z,1002.82
2016-05-24T00:21:47.977Z,1002.82
2016-05-24T00:22:47.979Z,1002.81
2016-05-24T00:23:47.982Z,1002.77
2016-05-24T00:24:47.984Z,1002.8
2016-05-24T00:25:47.971Z,1002.76
2016-05-24T00:26:47.973Z,1002.77
2016-05-24T00:27:48.368Z,1002.78
2016-05-24T00:28:47.979Z,1002.77
2016-05-24T00:29:47.966Z,1002.78
2016-05-24T00:30:47.968Z,1002.78
2016-05-24T00:31:47.972Z,1002.73
2016-05-24T00:32:47.959Z,1002.75
2016-05-24T00:33:47.962Z,1002.69
2016-05-24T00:34:47.964Z,1002.76
2016-05-24T00:35:47.967Z,1002.71
2016-05-24T00:36:47.953Z,1002.67
2016-05-24T00:37:47.956Z,1002.68
2016-05-24T00:38:47.959Z,1002.68
2016-05-24T00:39:47.946Z,1002.65
2016-05-24T00:40:47.949Z,1002.73
2016-05-24T00:41:47.951Z,1002.73
2016-05-24T00:42:47.939Z,1002.74
2016-05-24T00:43:47.941Z,1002.73
2016-05-24T00:44:47.944Z,1002.75
2016-05-24T00:45:47.947Z,1002.71
2016-05-24T00:46:47.950Z,1002.7
2016-05-24T00:47:47.936Z,1002.69
2016-05-24T00:48:47.939Z,1002.72
2016-05-24T00:49:47.942Z,1002.69
2016-05-24T00:50:47.930Z,1002.75
2016-05-24T00:51:47.932Z,1002.72
2016-05-24T00:52:47.935Z,1002.79
2016-05-24T00:53:48.937Z,1002.76
2016-05-24T00:54:47.986Z,1002.78
2016-05-24T00:55:47.927Z,1002.77
2016-05-24T00:56:47.930Z,1002.74
2016-05-24T00:57:47.916Z,1002.72
2016-05-24T00:58:47.919Z,1002.77
2016-05-24T00:59:47.921Z,1002.73
2016-05-24T01:00:47.920Z,1002.75
2016-05-24T01:01:49.263Z,1002.75
2016-05-24T01:02:47.982Z,1002.83
2016-05-24T01:03:48.014Z,1002.83
2016-05-24T01:04:48.028Z,1002.87
2016-05-24T01:05:48.521Z,1002.88
2016-05-24T01:06:48.065Z,1002.89
2016-05-24T01:07:48.061Z,1002.92
2016-05-24T01:08:48.075Z,1002.9
2016-05-24T01:09:48.088Z,1002.93
2016-05-24T01:10:48.098Z,1002.92
2016-05-24T01:11:48.089Z,1002.93
2016-05-24T01:12:48.096Z,1002.93
2016-05-24T01:13:48.102Z,1002.87
2016-05-24T01:14:48.093Z,1002.88
2016-05-24T01:15:48.099Z,1002.85
2016-05-24T01:16:48.102Z,1002.88
2016-05-24T01:17:48.106Z,1002.86
2016-05-24T01:18:48.095Z,1002.85
2016-05-24T01:19:48.098Z,1002.88
2016-05-24T01:20:48.102Z,1002.94
2016-05-24T01:21:48.090Z,1002.94
2016-05-24T01:22:48.092Z,1002.92
2016-05-24T01:23:48.096Z,1002.94
2016-05-24T01:24:48.082Z,1002.92
2016-05-24T01:25:48.086Z,1002.92
2016-05-24T01:26:48.088Z,1002.9
2016-05-24T01:27:48.092Z,1002.87
2016-05-24T01:28:48.079Z,1002.83
2016-05-24T01:29:48.083Z,1002.83
2016-05-24T01:30:48.085Z,1002.89
2016-05-24T01:31:48.073Z,1002.86
2016-05-24T01:32:48.076Z,1002.89
2016-05-24T01:33:48.078Z,1002.87
2016-05-24T01:34:48.080Z,1002.9
2016-05-24T01:35:48.474Z,1002.87
2016-05-24T01:36:48.116Z,1002.88
2016-05-24T01:37:48.073Z,1002.85
2016-05-24T01:38:48.061Z,1002.89
2016-05-24T01:39:48.063Z,1002.87
2016-05-24T01:40:48.066Z,1002.83
2016-05-24T01:41:48.052Z,1002.81
2016-05-24T01:42:48.055Z,1002.84
2016-05-24T01:43:48.057Z,1002.85
2016-05-24T01:44:48.811Z,1002.86
2016-05-24T01:45:48.798Z,1002.88
2016-05-24T01:46:48.051Z,1002.86
2016-05-24T01:47:48.053Z,1002.92
2016-05-24T01:48:48.040Z,1002.92
2016-05-24T01:49:48.043Z,1002.93
2016-05-24T01:50:48.046Z,1002.92
2016-05-24T01:51:48.032Z,1002.94
2016-05-24T01:52:48.035Z,1002.91
2016-05-24T01:53:48.037Z,1002.91
2016-05-24T01:54:48.040Z,1002.89
2016-05-24T01:55:48.028Z,1002.9
2016-05-24T01:56:48.031Z,1002.89
2016-05-24T01:57:48.033Z,1002.88
2016-05-24T01:58:48.020Z,1002.9
2016-05-24T01:59:48.023Z,1002.88
2016-05-24T02:00:48.026Z,1002.88
2016-05-24T02:01:48.012Z,1002.88
2016-05-24T02:02:48.015Z,1002.86
2016-05-24T02:03:48.017Z,1002.85
2016-05-24T02:04:48.005Z,1002.87
2016-05-24T02:05:48.007Z,1002.88
2016-05-24T02:06:48.011Z,1002.86
2016-05-24T02:07:48.014Z,1002.84
2016-05-24T02:08:49.328Z,1002.83
2016-05-24T02:09:48.002Z,1002.81
2016-05-24T02:10:47.990Z,1002.81
2016-05-24T02:11:47.993Z,1002.82
2016-05-24T02:12:48.792Z,1002.78
2016-05-24T02:13:47.999Z,1002.77
2016-05-24T02:14:48.360Z,1002.83
2016-05-24T02:15:47.988Z,1002.86
2016-05-24T02:16:47.990Z,1002.85
2016-05-24T02:17:47.993Z,1002.85
2016-05-24T02:18:47.980Z,1002.89
2016-05-24T02:19:49.170Z,1002.85
2016-05-24T02:20:47.986Z,1002.87
2016-05-24T02:21:47.973Z,1002.89
2016-05-24T02:22:47.975Z,1002.86
2016-05-24T02:23:48.025Z,1002.87
2016-05-24T02:24:47.965Z,1002.88
2016-05-24T02:25:47.968Z,1002.87
2016-05-24T02:26:47.970Z,1002.85
2016-05-24T02:27:47.957Z,1002.84
2016-05-24T02:28:47.960Z,1002.81
2016-05-24T02:29:47.995Z,1002.78
2016-05-24T02:30:47.950Z,1002.8
2016-05-24T02:31:47.953Z,1002.81
2016-05-24T02:32:47.955Z,1002.84
2016-05-24T02:33:47.958Z,1002.81
2016-05-24T02:34:47.944Z,1002.86
2016-05-24T02:35:47.948Z,1002.82
2016-05-24T02:36:47.950Z,1002.84
2016-05-24T02:37:47.953Z,1002.84
2016-05-24T02:38:47.940Z,1002.86
2016-05-24T02:39:47.943Z,1002.89
2016-05-24T02:40:47.930Z,1002.95
2016-05-24T02:41:47.933Z,1002.99
2016-05-24T02:42:47.936Z,1002.96
2016-05-24T02:43:47.938Z,1002.97
2016-05-24T02:44:48.268Z,1002.95
2016-05-24T02:45:47.990Z,1002.97
2016-05-24T02:46:48.008Z,1003.02
2016-05-24T02:47:47.965Z,1003
2016-05-24T02:48:47.999Z,1003.02
2016-05-24T02:49:47.923Z,1003.03
2016-05-24T02:50:47.910Z,1003.02
2016-05-24T02:51:47.975Z,1003.01
2016-05-24T02:52:47.978Z,1002.98
2016-05-24T02:53:47.965Z,1002.99
2016-05-24T02:54:47.952Z,1003.02
2016-05-24T02:55:47.907Z,1003.04
2016-05-24T02:56:47.895Z,1003.07
2016-05-24T02:57:47.898Z,1003.11
2016-05-24T02:58:48.151Z,1003.09
2016-05-24T02:59:48.153Z,1003.12
2016-05-24T03:00:47.890Z,1003.12
2016-05-24T03:01:47.892Z,1003.12
2016-05-24T03:02:47.880Z,1003.14
2016-05-24T03:03:48.383Z,1003.15
2016-05-24T03:04:48.292Z,1003.18
2016-05-24T03:05:47.888Z,1003.18
2016-05-24T03:06:48.484Z,1003.18
2016-05-24T03:08:47.880Z,1003.2
2016-05-24T03:09:47.867Z,1003.18
2016-05-24T03:10:47.870Z,1003.2
2016-05-24T03:11:47.872Z,1003.22
2016-05-24T03:12:47.860Z,1003.19
2016-05-24T03:13:47.862Z,1003.21
2016-05-24T03:14:48.365Z,1003.21
2016-05-24T03:15:47.868Z,1003.19
2016-05-24T03:16:47.855Z,1003.16
2016-05-24T03:17:47.858Z,1003.15
2016-05-24T03:18:47.860Z,1003.13
2016-05-24T03:19:47.846Z,1003.14
2016-05-24T03:20:47.849Z,1003.12
2016-05-24T03:21:47.852Z,1003.08
2016-05-24T03:22:47.840Z,1003.07
2016-05-24T03:23:47.843Z,1003.08
2016-05-24T03:24:47.845Z,1003.09
2016-05-24T03:25:47.832Z,1003.04
2016-05-24T03:26:47.835Z,1003.07
2016-05-24T03:27:47.837Z,1003.09
2016-05-24T03:28:47.840Z,1003.07
2016-05-24T03:29:49.249Z,1003.12
2016-05-24T03:30:47.939Z,1003.14
2016-05-24T03:31:48.489Z,1003.19
2016-05-24T03:32:47.851Z,1003.21
2016-05-24T03:33:47.822Z,1003.25
2016-05-24T03:34:47.825Z,1003.31
2016-05-24T03:35:47.828Z,1003.35
2016-05-24T03:36:47.814Z,1003.38
2016-05-24T03:37:47.818Z,1003.36
2016-05-24T03:38:47.820Z,1003.43
2016-05-24T03:39:47.823Z,1003.4
2016-05-24T03:40:47.810Z,1003.4
2016-05-24T03:41:47.813Z,1003.43
2016-05-24T03:42:47.815Z,1003.52
2016-05-24T03:43:47.819Z,1003.48
2016-05-24T03:44:47.805Z,1003.56
2016-05-24T03:45:47.808Z,1003.54
2016-05-24T03:46:47.810Z,1003.52
2016-05-24T03:47:47.813Z,1003.55
2016-05-24T03:48:47.815Z,1003.55
2016-05-24T03:49:47.803Z,1003.48
2016-05-24T03:50:47.805Z,1003.48
2016-05-24T03:51:47.808Z,1003.47
2016-05-24T03:52:47.810Z,1003.46
2016-05-24T03:53:47.799Z,1003.49
2016-05-24T03:54:47.801Z,1003.49
2016-05-24T03:55:47.804Z,1003.48
2016-05-24T03:56:47.806Z,1003.45
2016-05-24T03:57:47.809Z,1003.47
2016-05-24T03:58:47.812Z,1003.48
2016-05-24T03:59:48.345Z,1003.45
2016-05-24T04:00:47.801Z,1003.5
2016-05-24T04:01:47.804Z,1003.53
2016-05-24T04:02:47.806Z,1003.57
2016-05-24T04:03:47.809Z,1003.54
2016-05-24T04:04:47.812Z,1003.54
2016-05-24T04:05:47.815Z,1003.58
2016-05-24T04:06:47.817Z,1003.54
2016-05-24T04:07:47.820Z,1003.61
2016-05-24T04:08:47.822Z,1003.6
2016-05-24T04:09:47.825Z,1003.56
2016-05-24T04:10:47.828Z,1003.57
2016-05-24T04:11:47.831Z,1003.62
2016-05-24T04:12:47.833Z,1003.66
2016-05-24T04:13:47.836Z,1003.64
2016-05-24T04:14:47.854Z,1003.65
2016-05-24T04:15:47.841Z,1003.68
2016-05-24T04:16:47.845Z,1003.65
2016-05-24T04:17:47.847Z,1003.67
2016-05-24T04:18:47.850Z,1003.68
2016-05-24T04:19:47.852Z,1003.75
2016-05-24T04:20:47.854Z,1003.77
2016-05-24T04:21:47.858Z,1003.78
2016-05-24T04:22:48.110Z,1003.82
2016-05-24T04:23:47.863Z,1003.81
2016-05-24T04:24:47.866Z,1003.85
2016-05-24T04:25:47.868Z,1003.84
2016-05-24T04:26:47.871Z,1003.79
2016-05-24T04:27:47.873Z,1003.8
2016-05-24T04:28:47.877Z,1003.79
2016-05-24T04:29:47.895Z,1003.82
2016-05-24T04:30:47.898Z,1003.87
2016-05-24T04:31:47.900Z,1003.88
2016-05-24T04:32:47.903Z,1003.89
2016-05-24T04:33:47.906Z,1003.9
2016-05-24T04:34:47.909Z,1003.92
2016-05-24T04:35:47.926Z,1003.89
2016-05-24T04:36:47.929Z,1003.88
2016-05-24T04:37:47.931Z,1003.89
2016-05-24T04:38:47.934Z,1003.89
2016-05-24T04:39:47.937Z,1003.88
2016-05-24T04:40:47.956Z,1003.88
2016-05-24T04:41:47.958Z,1003.86
2016-05-24T04:42:47.961Z,1003.9
2016-05-24T04:43:47.963Z,1003.89
2016-05-24T04:44:47.983Z,1003.89
2016-05-24T04:45:47.985Z,1003.87
2016-05-24T04:46:49.628Z,1003.93
2016-05-24T04:47:49.005Z,1003.86
2016-05-24T04:48:47.993Z,1003.9
2016-05-24T04:49:48.151Z,1003.94
2016-05-24T04:50:48.014Z,1003.96
2016-05-24T04:51:48.017Z,1003.92
2016-05-24T04:52:48.035Z,1003.94
2016-05-24T04:53:48.115Z,1003.95
2016-05-24T04:54:48.040Z,1003.97
2016-05-24T04:55:49.574Z,1003.95
2016-05-24T04:56:48.062Z,1003.96
2016-05-24T04:57:48.065Z,1003.95
2016-05-24T04:58:48.082Z,1003.99
2016-05-24T04:59:48.084Z,1004.01
2016-05-24T05:00:48.573Z,1004.03
2016-05-24T05:01:48.106Z,1004.02
2016-05-24T05:02:48.109Z,1004.05
2016-05-24T05:03:48.127Z,1004.11
2016-05-24T05:04:48.129Z,1004.15
2016-05-24T05:05:48.148Z,1004.14
2016-05-24T05:06:48.150Z,1004.21
2016-05-24T05:07:48.153Z,1004.08
2016-05-24T05:08:48.172Z,1004.18
2016-05-24T05:09:48.175Z,1004.24
2016-05-24T05:10:48.192Z,1004.29
2016-05-24T05:11:48.195Z,1004.36
2016-05-24T05:12:48.214Z,1004.36
2016-05-24T05:13:48.217Z,1004.41
2016-05-24T05:14:48.219Z,1004.42
2016-05-24T05:15:48.238Z,1004.45
2016-05-24T05:16:48.240Z,1004.53
2016-05-24T05:17:48.258Z,1004.53
2016-05-24T05:18:48.261Z,1004.6
2016-05-24T05:19:48.280Z,1004.65
2016-05-24T05:20:48.282Z,1004.74
2016-05-24T05:21:48.300Z,1004.33
2016-05-24T05:22:48.303Z,1004.77
2016-05-24T05:23:48.322Z,1004.95
2016-05-24T05:24:48.339Z,1004.29
2016-05-24T05:25:48.343Z,1005.05
2016-05-24T05:26:48.346Z,1004.38
2016-05-24T05:27:48.363Z,1004.58
2016-05-24T05:28:48.381Z,1004.74
2016-05-24T05:29:48.400Z,1004.75
2016-05-24T05:30:48.403Z,1004.84
2016-05-24T05:31:48.406Z,1005.07
2016-05-24T05:32:48.423Z,1004.54
2016-05-24T05:33:48.833Z,1005.05
2016-05-24T05:34:48.445Z,1005.2
2016-05-24T05:35:48.462Z,1004.92
2016-05-24T05:36:48.466Z,1004.7
2016-05-24T05:37:48.875Z,1004.84
2016-05-24T05:38:48.502Z,1004.63
2016-05-24T05:39:48.505Z,1004.73
2016-05-24T05:40:48.508Z,1004.63
2016-05-24T05:42:48.528Z,1004.55
2016-05-24T05:43:48.547Z,1004.54
2016-05-24T05:44:48.566Z,1004.49
2016-05-24T05:45:48.568Z,1004.59
2016-05-24T05:46:48.571Z,1004.81
2016-05-24T05:47:48.729Z,1004.57
2016-05-24T05:48:48.591Z,1004.7
2016-05-24T05:49:48.611Z,1004.41
2016-05-24T05:50:48.613Z,1004.43
2016-05-24T05:51:48.631Z,1004.46
2016-05-24T05:52:48.633Z,1004.56
2016-05-24T05:53:48.652Z,1004.47
2016-05-24T05:54:48.654Z,1004.29
2016-05-24T05:55:48.673Z,1004.36
2016-05-24T05:56:48.676Z,1004.45
2016-05-24T05:57:48.694Z,1004.41
2016-05-24T05:58:48.696Z,1004.44
2016-05-24T05:59:48.715Z,1004.52
2016-05-24T06:00:48.718Z,1004.52
2016-05-24T06:01:48.720Z,1004.54
2016-05-24T06:02:48.739Z,1004.65
2016-05-24T06:03:48.741Z,1004.72
2016-05-24T06:05:48.762Z,1005.64
2016-05-24T06:06:48.781Z,1004.74
2016-05-24T06:07:48.783Z,1004.78
2016-05-24T06:08:49.255Z,1005.38
2016-05-24T06:09:48.803Z,1005.22
2016-05-24T06:10:49.291Z,1004.87
2016-05-24T06:11:48.826Z,1005.3
2016-05-24T06:12:48.828Z,1006.02
2016-05-24T06:13:48.846Z,1005.39
2016-05-24T06:14:49.022Z,1005.17
2016-05-24T06:15:48.945Z,1005.16
2016-05-24T06:16:48.869Z,1005.78
2016-05-24T06:17:49.325Z,1005.01
2016-05-24T06:18:49.594Z,1005.01
2016-05-24T06:19:48.894Z,1005.19
2016-05-24T06:20:48.913Z,1005.62
2016-05-24T06:21:48.915Z,1005.89
2016-05-24T06:22:48.933Z,1005.43
2016-05-24T06:23:48.935Z,1005.13
2016-05-24T06:24:48.938Z,1004.76
2016-05-24T06:25:48.957Z,1004.57
2016-05-24T06:26:48.975Z,1004.56
2016-05-24T06:27:48.977Z,1004.6
2016-05-24T06:28:48.996Z,1004.57
2016-05-24T06:29:48.999Z,1004.56
2016-05-24T06:30:49.017Z,1004.55
2016-05-24T06:31:49.035Z,1004.6
2016-05-24T06:32:49.038Z,1004.58
2016-05-24T06:33:49.041Z,1004.65
2016-05-24T06:34:49.059Z,1004.64
2016-05-24T06:35:49.062Z,1004.64
2016-05-24T06:36:49.081Z,1004.82
2016-05-24T06:37:49.083Z,1005.34
2016-05-24T06:38:49.101Z,1005.54
2016-05-24T06:39:49.104Z,1005.58
2016-05-24T06:40:49.123Z,1005.77
2016-05-24T06:41:49.125Z,1005.54
2016-05-24T06:42:49.142Z,1005.12
2016-05-24T06:43:49.145Z,1004.92
2016-05-24T06:44:49.164Z,1004.88
2016-05-24T06:45:49.167Z,1004.78
2016-05-24T06:46:49.186Z,1004.77
2016-05-24T06:47:49.188Z,1004.85
2016-05-24T06:48:49.206Z,1004.85
2016-05-24T06:50:49.228Z,1004.81
2016-05-24T06:51:49.246Z,1004.79
2016-05-24T06:52:49.249Z,1004.82
2016-05-24T06:53:49.251Z,1005.17
2016-05-24T06:54:49.285Z,1005.29
2016-05-24T06:55:49.288Z,1005.52
2016-05-24T06:56:49.290Z,1004.99
2016-05-24T06:57:49.308Z,1004.87
2016-05-24T06:58:49.311Z,1005.03
2016-05-24T07:01:49.335Z,1004.32
2016-05-24T07:02:49.354Z,1004.34
2016-05-24T07:03:49.371Z,1004.3
2016-05-24T07:04:49.437Z,1004.42
2016-05-24T07:05:49.393Z,1004.47
2016-05-24T07:06:49.645Z,1004.43
2016-05-24T07:07:49.398Z,1004.5
2016-05-24T07:08:49.417Z,1004.58
2016-05-24T07:09:49.420Z,1004.7
2016-05-24T07:10:49.437Z,1004.74
2016-05-24T07:11:49.440Z,1004.74
2016-05-24T07:12:49.459Z,1004.79
2016-05-24T07:13:49.462Z,1004.82
2016-05-24T07:14:49.589Z,1004.72
2016-05-24T07:15:49.481Z,1004.67
2016-05-24T07:16:49.484Z,1004.6
2016-05-24T07:17:49.503Z,1004.64
2016-05-24T07:18:49.536Z,1004.51
2016-05-24T07:19:49.508Z,1004.6
2016-05-24T07:20:49.527Z,1004.65
2016-05-24T07:21:49.530Z,1004.58
2016-05-24T07:22:49.547Z,1004.55
2016-05-24T07:23:49.550Z,1004.65
2016-05-24T07:24:49.569Z,1004.91
2016-05-24T07:25:49.572Z,1004.98
2016-05-24T07:26:49.574Z,1004.86
2016-05-24T07:27:49.593Z,1004.85
2016-05-24T07:28:49.596Z,1005.07
2016-05-24T07:29:49.613Z,1005.26
2016-05-24T07:30:49.616Z,1005.31
2016-05-24T07:31:49.618Z,1005.02
2016-05-24T07:32:49.637Z,1005.37
2016-05-24T07:33:50.999Z,1005.31
2016-05-24T07:34:49.908Z,1005.38
2016-05-24T07:35:50.832Z,1005.1
2016-05-24T07:36:49.663Z,1005.02
2016-05-24T07:37:49.666Z,1004.99
2016-05-24T07:38:49.685Z,1005.05
2016-05-24T07:39:49.687Z,1005.06
2016-05-24T07:40:49.706Z,1005.03
2016-05-24T07:41:49.708Z,1004.98
2016-05-24T07:42:49.726Z,1004.99
2016-05-24T07:43:49.729Z,1004.94
2016-05-24T07:44:49.731Z,1005.02
2016-05-24T07:45:49.751Z,1005.17
2016-05-24T07:46:49.769Z,1005.4
2016-05-24T07:47:49.771Z,1005.05
2016-05-24T07:48:49.775Z,1004.8
2016-05-24T07:49:49.792Z,1004.71
2016-05-24T07:50:49.795Z,1004.82
2016-05-24T07:51:49.798Z,1004.77
2016-05-24T07:52:49.816Z,1004.83
2016-05-24T07:53:49.819Z,1004.8
2016-05-24T07:54:49.852Z,1004.81
2016-05-24T07:55:49.839Z,1004.8
2016-05-24T07:56:49.858Z,1004.89
2016-05-24T07:57:49.861Z,1005.22
2016-05-24T07:58:49.879Z,1004.88
2016-05-24T07:59:49.882Z,1004.92
2016-05-24T08:00:49.884Z,1004.92
2016-05-24T08:01:49.902Z,1005.01
2016-05-24T08:02:49.905Z,1005.05
2016-05-24T08:03:49.924Z,1005.1
2016-05-24T08:04:49.927Z,1004.96
2016-05-24T08:05:49.929Z,1004.87
2016-05-24T08:06:49.948Z,1004.84
2016-05-24T08:07:49.950Z,1004.71
2016-05-24T08:08:49.968Z,1004.73
2016-05-24T08:09:49.971Z,1004.75
2016-05-24T08:10:49.974Z,1004.72
2016-05-24T08:11:49.992Z,1004.6
2016-05-24T08:12:50.245Z,1004.61
2016-05-24T08:13:49.998Z,1004.6
2016-05-24T08:14:50.015Z,1004.57
2016-05-24T08:15:50.018Z,1004.58
2016-05-24T08:16:50.037Z,1004.67
2016-05-24T08:17:50.040Z,1004.82
2016-05-24T08:18:50.042Z,1004.75
2016-05-24T08:19:50.060Z,1004.69
2016-05-24T08:20:50.063Z,1004.78
2016-05-24T08:21:50.067Z,1004.87
2016-05-24T08:22:50.084Z,1004.91
2016-05-24T08:23:50.087Z,1005.03
2016-05-24T08:24:50.090Z,1005.03
2016-05-24T08:25:50.217Z,1005.01
2016-05-24T08:26:50.110Z,1005.05
2016-05-24T08:27:50.113Z,1005.11
2016-05-24T08:28:50.132Z,1005.21
2016-05-24T08:29:50.135Z,1005.16
2016-05-24T08:30:50.137Z,1005.14
2016-05-24T08:31:50.155Z,1005.15
2016-05-24T08:32:50.158Z,1005.16
2016-05-24T08:33:50.160Z,1005.14
2016-05-24T08:34:50.179Z,1005.2
2016-05-24T08:35:50.182Z,1005.17
2016-05-24T08:36:50.185Z,1005.15
2016-05-24T08:37:50.202Z,1005.13
2016-05-24T08:38:50.205Z,1005.14
2016-05-24T08:39:50.207Z,1005.26
2016-05-24T08:40:50.226Z,1005.22
2016-05-24T08:41:50.229Z,1005.29
2016-05-24T08:42:50.232Z,1005.28
2016-05-24T08:43:50.251Z,1005.33
2016-05-24T08:44:50.253Z,1005.23
2016-05-24T08:45:50.990Z,1005.14
2016-05-24T08:46:50.273Z,1005.08
2016-05-24T08:47:50.276Z,1005.1
2016-05-24T08:48:50.278Z,1005.13
2016-05-24T08:49:50.297Z,1005.13
2016-05-24T08:50:50.301Z,1005.18
2016-05-24T08:51:51.490Z,1005.22
2016-05-24T08:52:50.321Z,1005.23
2016-05-24T08:53:50.949Z,1005.29
2016-05-24T08:54:50.873Z,1005.3
2016-05-24T08:55:50.344Z,1005.3
2016-05-24T08:56:51.098Z,1005.23
2016-05-24T08:57:50.366Z,1005.25
2016-05-24T08:58:50.369Z,1005.18
2016-05-24T08:59:50.449Z,1005.13
2016-05-24T09:00:50.389Z,1005.14
2016-05-24T09:01:50.392Z,1005.03
2016-05-24T09:02:50.410Z,1004.96
2016-05-24T09:03:50.414Z,1004.96
2016-05-24T09:04:50.416Z,1005.12
2016-05-24T09:05:50.434Z,1005.07
2016-05-24T09:06:50.515Z,1005.06
2016-05-24T09:07:50.455Z,1005.01
2016-05-24T09:08:50.458Z,1004.99
2016-05-24T09:09:50.460Z,1005.03
2016-05-24T09:10:51.432Z,1005.08
2016-05-24T09:11:50.482Z,1005.16
2016-05-24T09:12:50.485Z,1005.16
2016-05-24T09:13:50.487Z,1005.18
2016-05-24T09:14:50.506Z,1005.17
2016-05-24T09:15:50.759Z,1005.16
2016-05-24T09:16:50.511Z,1005.08
2016-05-24T09:17:50.623Z,1005.11
2016-05-24T09:18:50.531Z,1005.12
2016-05-24T09:19:50.534Z,1005.11
2016-05-24T09:20:51.272Z,1005.15
2016-05-24T09:21:50.556Z,1005.18
2016-05-24T09:22:50.573Z,1005.22
2016-05-24T09:23:50.576Z,1005.22
2016-05-24T09:24:50.579Z,1005.22
2016-05-24T09:25:50.582Z,1005.14
2016-05-24T09:26:50.584Z,1005.18
2016-05-24T09:27:51.149Z,1005.19
2016-05-24T09:28:51.403Z,1005.26
2016-05-24T09:29:50.608Z,1005.26
2016-05-24T09:30:50.611Z,1005.29
2016-05-24T09:31:50.630Z,1005.3
2016-05-24T09:32:50.632Z,1005.33
2016-05-24T09:33:50.650Z,1005.38
2016-05-24T09:34:50.638Z,1005.35
2016-05-24T09:35:50.640Z,1005.4
2016-05-24T09:36:50.657Z,1005.39
2016-05-24T09:37:50.661Z,1005.49
2016-05-24T09:38:50.663Z,1005.48
2016-05-24T09:39:50.666Z,1005.49
2016-05-24T09:40:50.732Z,1005.5
2016-05-24T09:41:50.687Z,1005.49
2016-05-24T09:42:50.690Z,1005.47
2016-05-24T09:43:50.693Z,1005.49
2016-05-24T09:44:50.757Z,1005.52
2016-05-24T09:45:51.229Z,1005.52
2016-05-24T09:46:50.716Z,1005.55
2016-05-24T09:47:50.720Z,1005.54
2016-05-24T09:48:50.723Z,1005.53
2016-05-24T09:49:50.739Z,1005.49
2016-05-24T09:50:50.743Z,1005.52
2016-05-24T09:51:50.745Z,1005.55
2016-05-24T09:52:50.748Z,1005.62
2016-05-24T09:53:50.751Z,1005.64
2016-05-24T09:54:50.784Z,1005.7
2016-05-24T09:55:50.772Z,1005.76
2016-05-24T09:56:50.775Z,1005.71
2016-05-24T09:57:50.777Z,1005.81
2016-05-24T09:58:50.780Z,1005.89
2016-05-24T09:59:50.783Z,1005.84
2016-05-24T10:00:50.801Z,1005.9
2016-05-24T10:01:52.397Z,1005.93
2016-05-24T10:02:51.619Z,1005.99
2016-05-24T10:03:50.809Z,1006.01
2016-05-24T10:04:50.827Z,1005.92
2016-05-24T10:05:50.829Z,1005.84
2016-05-24T10:06:50.846Z,1005.88
2016-05-24T10:07:50.871Z,1005.88
2016-05-24T10:08:50.911Z,1005.76
2016-05-24T10:09:50.936Z,1005.74
2016-05-24T10:10:50.961Z,1005.87
2016-05-24T10:11:50.976Z,1005.87
2016-05-24T10:12:51.752Z,1005.84
2016-05-24T10:13:51.013Z,1005.84
2016-05-24T10:14:51.555Z,1005.82
2016-05-24T10:15:51.051Z,1005.84
2016-05-24T10:16:51.074Z,1005.95
2016-05-24T10:17:51.064Z,1005.97
2016-05-24T10:18:51.085Z,1005.97
2016-05-24T10:19:51.090Z,1005.96
2016-05-24T10:20:51.533Z,1005.93
2016-05-24T10:21:51.100Z,1005.97
2016-05-24T10:22:51.119Z,1005.97
2016-05-24T10:23:51.123Z,1006.04
2016-05-24T10:24:51.220Z,1006.04
2016-05-24T10:25:51.146Z,1006.07
2016-05-24T10:26:51.150Z,1006.03
2016-05-24T10:27:51.168Z,1006.08
2016-05-24T10:28:51.156Z,1006.07
2016-05-24T10:29:51.174Z,1006.11
2016-05-24T10:30:51.177Z,1006.14
2016-05-24T10:31:51.180Z,1006.1
2016-05-24T10:32:51.183Z,1006.12
2016-05-24T10:33:51.201Z,1006.07
2016-05-24T10:34:51.220Z,1006.06
2016-05-24T10:35:51.222Z,1006.04
2016-05-24T10:36:51.225Z,1005.97
2016-05-24T10:37:51.243Z,1005.85
2016-05-24T10:38:51.246Z,1005.78
2016-05-24T10:39:51.248Z,1005.83
2016-05-24T10:40:51.251Z,1005.82
2016-05-24T10:41:51.254Z,1005.84
2016-05-24T10:42:51.272Z,1005.93
2016-05-24T10:43:51.353Z,1005.99
2016-05-24T10:44:51.278Z,1005.9
2016-05-24T10:45:51.296Z,1005.9
2016-05-24T10:46:51.299Z,1005.91
2016-05-24T10:47:51.302Z,1006.01
2016-05-24T10:48:51.320Z,1006.04
2016-05-24T10:49:51.322Z,1006.07
2016-05-24T10:50:51.325Z,1006.13
2016-05-24T10:51:51.344Z,1006.18
2016-05-24T10:52:51.346Z,1006.19
2016-05-24T10:53:51.349Z,1006.21
2016-05-24T10:54:51.445Z,1006.25
2016-05-24T10:55:51.463Z,1006.29
2016-05-24T10:56:51.779Z,1006.19
2016-05-24T10:57:51.375Z,1006.06
2016-05-24T10:58:51.393Z,1006.01
2016-05-24T10:59:51.396Z,1005.95
2016-05-24T11:00:51.507Z,1006
2016-05-24T11:01:51.418Z,1006.03
2016-05-24T11:02:51.420Z,1006.04
2016-05-24T11:03:51.423Z,1006.02
2016-05-24T11:04:51.441Z,1006.01
2016-05-24T11:05:51.443Z,1006.13
2016-05-24T11:06:51.446Z,1006.15
2016-05-24T11:07:51.465Z,1006.2
2016-05-24T11:08:51.467Z,1006.21
2016-05-24T11:09:51.470Z,1006.21
2016-05-24T11:10:51.489Z,1006.22
2016-05-24T11:11:51.491Z,1006.24
2016-05-24T11:12:51.494Z,1006.27
2016-05-24T11:13:51.511Z,1006.28
2016-05-24T11:14:51.515Z,1006.33
2016-05-24T11:15:51.752Z,1006.32
2016-05-24T11:16:51.519Z,1006.32
2016-05-24T11:17:51.554Z,1006.27
2016-05-24T11:18:51.541Z,1006.29
2016-05-24T11:19:52.606Z,1006.3
2016-05-24T11:20:51.562Z,1006.23
2016-05-24T11:21:52.627Z,1006.1
2016-05-24T11:22:52.771Z,1006.01
2016-05-24T11:23:51.602Z,1006
2016-05-24T11:24:51.588Z,1005.98
2016-05-24T11:25:51.591Z,1005.95
2016-05-24T11:26:51.610Z,1006.02
2016-05-24T11:27:51.612Z,1006.01
2016-05-24T11:28:53.208Z,1005.99
2016-05-24T11:29:51.633Z,1006.04
2016-05-24T11:30:51.636Z,1006.03
2016-05-24T11:31:51.841Z,1006.04
2016-05-24T11:32:51.719Z,1006.05
2016-05-24T11:33:51.660Z,1006.11
2016-05-24T11:34:51.710Z,1006.23
2016-05-24T11:35:51.681Z,1006.15
2016-05-24T11:36:51.683Z,1006.2
2016-05-24T11:37:51.686Z,1006.19
2016-05-24T11:38:51.704Z,1006.17
2016-05-24T11:39:51.707Z,1006.13
2016-05-24T11:40:51.709Z,1006.18
2016-05-24T11:41:51.712Z,1006.17
2016-05-24T11:42:51.731Z,1006.16
2016-05-24T11:43:51.748Z,1006.19
2016-05-24T11:44:51.751Z,1006.16
2016-05-24T11:45:52.207Z,1006.17
2016-05-24T11:46:51.756Z,1006.14
2016-05-24T11:47:51.775Z,1006.17
2016-05-24T11:48:51.778Z,1006.15
2016-05-24T11:49:51.781Z,1006.15
2016-05-24T11:50:51.784Z,1006.16
2016-05-24T11:51:51.801Z,1006.2
2016-05-24T11:52:51.805Z,1006.2
2016-05-24T11:53:51.808Z,1006.18
2016-05-24T11:54:51.825Z,1006.21
2016-05-24T11:55:51.828Z,1006.21
2016-05-24T11:56:51.830Z,1006.26
2016-05-24T11:57:51.849Z,1006.29
2016-05-24T11:58:51.852Z,1006.25
2016-05-24T11:59:51.870Z,1006.28
2016-05-24T12:00:51.873Z,1006.31
2016-05-24T12:01:51.876Z,1006.29
2016-05-24T12:02:51.878Z,1006.36
2016-05-24T12:03:51.990Z,1006.33
2016-05-24T12:05:51.902Z,1006.34
2016-05-24T12:06:51.920Z,1006.23
2016-05-24T12:07:51.923Z,1006.22
2016-05-24T12:08:52.129Z,1006.19
2016-05-24T12:09:52.085Z,1006.22
2016-05-24T12:10:51.946Z,1006.3
2016-05-24T12:11:51.965Z,1006.35
2016-05-24T12:12:51.967Z,1006.37
2016-05-24T12:13:51.970Z,1006.38
2016-05-24T12:14:52.942Z,1006.34